sensor_id;sensor_type;location;lat;lon;timestamp;temperature;humidity
10692;DHT22;5396;50.950;6.988;2023-07-09T00:02:18;22.20;99.90
10692;DHT22;5396;50.950;6.988;2023-07-09T00:04:44;22.10;99.90
10692;DHT22;5396;50.950;6.988;2023-07-09T00:09:43;22.10;99.90
10692;DHT22;5396;50.950;6.988;2023-07-09T00:12:14;22.10;99.90
10692;DHT22;5396;50.950;6.988;2023-07-09T00:14:41;22.10;99.90
10692;DHT22;5396;50.950;6.988;2023-07-09T00:17:11;22.00;99.90
10692;DHT22;5396;50.950;6.988;2023-07-09T00:19:37;22.00;99.90
10692;DHT22;5396;50.950;6.988;2023-07-09T00:22:10;22.00;99.90
10692;DHT22;5396;50.950;6.988;2023-07-09T00:24:38;22.00;99.90
10692;DHT22;5396;50.950;6.988;2023-07-09T00:27:08;22.00;99.90
10692;DHT22;5396;50.950;6.988;2023-07-09T00:29:33;21.90;99.90
10692;DHT22;5396;50.950;6.988;2023-07-09T00:31:59;21.90;99.90
10692;DHT22;5396;50.950;6.988;2023-07-09T00:34:24;21.90;99.90
10692;DHT22;5396;50.950;6.988;2023-07-09T00:36:50;21.80;99.90
10692;DHT22;5396;50.950;6.988;2023-07-09T00:39:18;21.80;99.90
10692;DHT22;5396;50.950;6.988;2023-07-09T00:41:44;21.70;99.90
10692;DHT22;5396;50.950;6.988;2023-07-09T00:44:32;21.70;99.90
10692;DHT22;5396;50.950;6.988;2023-07-09T00:49:36;21.70;99.90
10692;DHT22;5396;50.950;6.988;2023-07-09T00:52:07;21.70;99.90
10692;DHT22;5396;50.950;6.988;2023-07-09T00:54:42;21.70;99.90
10692;DHT22;5396;50.950;6.988;2023-07-09T00:57:13;21.70;99.90
10692;DHT22;5396;50.950;6.988;2023-07-09T00:59:42;21.60;99.90
10692;DHT22;5396;50.950;6.988;2023-07-09T01:02:09;21.60;99.90
10692;DHT22;5396;50.950;6.988;2023-07-09T01:04:35;21.50;99.90
10692;DHT22;5396;50.950;6.988;2023-07-09T01:07:01;21.50;99.90
10692;DHT22;5396;50.950;6.988;2023-07-09T01:09:27;21.40;99.90
10692;DHT22;5396;50.950;6.988;2023-07-09T01:11:53;21.40;99.90
10692;DHT22;5396;50.950;6.988;2023-07-09T01:14:23;21.30;99.90
10692;DHT22;5396;50.950;6.988;2023-07-09T01:16:55;21.30;99.90
10692;DHT22;5396;50.950;6.988;2023-07-09T01:19:28;21.20;99.90
10692;DHT22;5396;50.950;6.988;2023-07-09T01:21:59;21.20;99.90
10692;DHT22;5396;50.950;6.988;2023-07-09T01:27:12;21.10;99.90
10692;DHT22;5396;50.950;6.988;2023-07-09T01:29:38;21.10;99.90
10692;DHT22;5396;50.950;6.988;2023-07-09T01:32:05;21.10;99.90
10692;DHT22;5396;50.950;6.988;2023-07-09T01:34:33;21.20;99.90
10692;DHT22;5396;50.950;6.988;2023-07-09T01:37:00;21.20;99.90
10692;DHT22;5396;50.950;6.988;2023-07-09T01:39:26;21.20;99.90
10692;DHT22;5396;50.950;6.988;2023-07-09T01:41:54;21.20;99.90
10692;DHT22;5396;50.950;6.988;2023-07-09T01:44:20;21.20;99.90
10692;DHT22;5396;50.950;6.988;2023-07-09T01:46:46;21.20;99.90
10692;DHT22;5396;50.950;6.988;2023-07-09T01:49:12;21.20;99.90
10692;DHT22;5396;50.950;6.988;2023-07-09T01:51:38;21.20;99.90
10692;DHT22;5396;50.950;6.988;2023-07-09T01:54:04;21.20;99.90
10692;DHT22;5396;50.950;6.988;2023-07-09T01:56:30;21.20;99.90
10692;DHT22;5396;50.950;6.988;2023-07-09T01:58:55;21.20;99.90
10692;DHT22;5396;50.950;6.988;2023-07-09T02:01:30;21.30;99.90
10692;DHT22;5396;50.950;6.988;2023-07-09T02:03:59;21.20;99.90
10692;DHT22;5396;50.950;6.988;2023-07-09T02:06:24;21.20;99.90
10692;DHT22;5396;50.950;6.988;2023-07-09T02:08:50;21.20;99.90
10692;DHT22;5396;50.950;6.988;2023-07-09T02:11:16;21.20;99.90
10692;DHT22;5396;50.950;6.988;2023-07-09T02:13:42;21.10;99.90
10692;DHT22;5396;50.950;6.988;2023-07-09T02:16:07;21.10;99.90
10692;DHT22;5396;50.950;6.988;2023-07-09T02:18:34;21.10;99.90
10692;DHT22;5396;50.950;6.988;2023-07-09T02:21:01;21.10;99.90
10692;DHT22;5396;50.950;6.988;2023-07-09T02:23:29;21.10;99.90
10692;DHT22;5396;50.950;6.988;2023-07-09T02:25:55;21.00;99.90
10692;DHT22;5396;50.950;6.988;2023-07-09T02:28:20;21.00;99.90
10692;DHT22;5396;50.950;6.988;2023-07-09T02:30:46;21.00;99.90
10692;DHT22;5396;50.950;6.988;2023-07-09T02:33:11;21.00;99.90
10692;DHT22;5396;50.950;6.988;2023-07-09T02:35:38;21.00;99.90
10692;DHT22;5396;50.950;6.988;2023-07-09T02:38:04;21.00;99.90
10692;DHT22;5396;50.950;6.988;2023-07-09T02:40:30;21.00;99.90
10692;DHT22;5396;50.950;6.988;2023-07-09T02:42:56;21.00;99.90
10692;DHT22;5396;50.950;6.988;2023-07-09T02:45:21;20.90;99.90
10692;DHT22;5396;50.950;6.988;2023-07-09T02:47:47;20.90;99.90
10692;DHT22;5396;50.950;6.988;2023-07-09T02:50:13;20.90;99.90
10692;DHT22;5396;50.950;6.988;2023-07-09T02:52:40;20.90;99.90
10692;DHT22;5396;50.950;6.988;2023-07-09T02:55:08;20.90;99.90
10692;DHT22;5396;50.950;6.988;2023-07-09T02:57:33;20.90;99.90
10692;DHT22;5396;50.950;6.988;2023-07-09T02:59:59;20.80;99.90
10692;DHT22;5396;50.950;6.988;2023-07-09T03:02:25;20.80;99.90
10692;DHT22;5396;50.950;6.988;2023-07-09T03:04:51;20.80;99.90
10692;DHT22;5396;50.950;6.988;2023-07-09T03:07:17;20.70;99.90
10692;DHT22;5396;50.950;6.988;2023-07-09T03:09:42;20.70;99.90
10692;DHT22;5396;50.950;6.988;2023-07-09T03:12:08;20.70;99.90
10692;DHT22;5396;50.950;6.988;2023-07-09T03:14:36;20.70;99.90
10692;DHT22;5396;50.950;6.988;2023-07-09T03:17:01;20.70;99.90
10692;DHT22;5396;50.950;6.988;2023-07-09T03:19:27;20.70;99.90
10692;DHT22;5396;50.950;6.988;2023-07-09T03:21:52;20.70;99.90
10692;DHT22;5396;50.950;6.988;2023-07-09T03:24:18;20.70;99.90
10692;DHT22;5396;50.950;6.988;2023-07-09T03:26:47;20.70;99.90
10692;DHT22;5396;50.950;6.988;2023-07-09T03:29:14;20.80;99.90
10692;DHT22;5396;50.950;6.988;2023-07-09T03:31:40;20.70;99.90
10692;DHT22;5396;50.950;6.988;2023-07-09T03:34:05;20.70;99.90
10692;DHT22;5396;50.950;6.988;2023-07-09T03:36:31;20.70;99.90
10692;DHT22;5396;50.950;6.988;2023-07-09T03:38:57;20.70;99.90
10692;DHT22;5396;50.950;6.988;2023-07-09T03:41:23;20.70;99.90
10692;DHT22;5396;50.950;6.988;2023-07-09T03:43:48;20.70;99.90
10692;DHT22;5396;50.950;6.988;2023-07-09T03:46:15;20.70;99.90
10692;DHT22;5396;50.950;6.988;2023-07-09T03:48:41;20.70;99.90
10692;DHT22;5396;50.950;6.988;2023-07-09T03:51:08;20.70;99.90
10692;DHT22;5396;50.950;6.988;2023-07-09T03:53:33;20.70;99.90
10692;DHT22;5396;50.950;6.988;2023-07-09T03:55:59;20.80;99.90
10692;DHT22;5396;50.950;6.988;2023-07-09T03:58:26;20.80;99.90
10692;DHT22;5396;50.950;6.988;2023-07-09T04:00:52;20.80;99.90
10692;DHT22;5396;50.950;6.988;2023-07-09T04:03:18;20.80;99.90
10692;DHT22;5396;50.950;6.988;2023-07-09T04:05:44;20.80;99.90
10692;DHT22;5396;50.950;6.988;2023-07-09T04:08:12;20.80;99.90
10692;DHT22;5396;50.950;6.988;2023-07-09T04:10:38;20.80;99.90
10692;DHT22;5396;50.950;6.988;2023-07-09T04:13:03;20.80;99.90
10692;DHT22;5396;50.950;6.988;2023-07-09T04:15:29;20.90;99.90
10692;DHT22;5396;50.950;6.988;2023-07-09T04:17:55;20.90;99.90
10692;DHT22;5396;50.950;6.988;2023-07-09T04:20:22;20.90;99.90
10692;DHT22;5396;50.950;6.988;2023-07-09T04:22:48;20.90;99.90
10692;DHT22;5396;50.950;6.988;2023-07-09T04:25:13;20.90;99.90
10692;DHT22;5396;50.950;6.988;2023-07-09T04:27:39;20.90;99.90
10692;DHT22;5396;50.950;6.988;2023-07-09T04:30:13;20.90;99.90
10692;DHT22;5396;50.950;6.988;2023-07-09T04:32:40;20.90;99.90
10692;DHT22;5396;50.950;6.988;2023-07-09T04:35:09;20.90;99.90
10692;DHT22;5396;50.950;6.988;2023-07-09T04:37:36;21.00;99.90
10692;DHT22;5396;50.950;6.988;2023-07-09T04:40:02;21.00;99.90
10692;DHT22;5396;50.950;6.988;2023-07-09T04:42:30;21.00;99.90
10692;DHT22;5396;50.950;6.988;2023-07-09T04:44:57;21.00;99.90
10692;DHT22;5396;50.950;6.988;2023-07-09T04:47:22;21.00;99.90
10692;DHT22;5396;50.950;6.988;2023-07-09T04:49:48;21.10;99.90
10692;DHT22;5396;50.950;6.988;2023-07-09T04:52:14;21.10;99.90
10692;DHT22;5396;50.950;6.988;2023-07-09T04:54:40;21.10;99.90
10692;DHT22;5396;50.950;6.988;2023-07-09T04:57:10;21.10;99.90
10692;DHT22;5396;50.950;6.988;2023-07-09T04:59:35;21.10;99.90
10692;DHT22;5396;50.950;6.988;2023-07-09T05:02:01;21.20;99.90
10692;DHT22;5396;50.950;6.988;2023-07-09T05:04:27;21.20;99.90
10692;DHT22;5396;50.950;6.988;2023-07-09T05:06:52;21.20;99.90
10692;DHT22;5396;50.950;6.988;2023-07-09T05:09:18;21.30;99.90
10692;DHT22;5396;50.950;6.988;2023-07-09T05:11:43;21.30;99.90
10692;DHT22;5396;50.950;6.988;2023-07-09T05:14:09;21.30;99.90
10692;DHT22;5396;50.950;6.988;2023-07-09T05:16:34;21.40;99.90
10692;DHT22;5396;50.950;6.988;2023-07-09T05:19:00;21.40;99.90
10692;DHT22;5396;50.950;6.988;2023-07-09T05:21:26;21.40;99.90
10692;DHT22;5396;50.950;6.988;2023-07-09T05:23:51;21.50;99.90
10692;DHT22;5396;50.950;6.988;2023-07-09T05:26:17;21.50;99.90
10692;DHT22;5396;50.950;6.988;2023-07-09T05:28:42;21.60;99.90
10692;DHT22;5396;50.950;6.988;2023-07-09T05:31:08;21.60;99.90
10692;DHT22;5396;50.950;6.988;2023-07-09T05:33:34;21.70;99.90
10692;DHT22;5396;50.950;6.988;2023-07-09T05:35:59;21.80;99.90
10692;DHT22;5396;50.950;6.988;2023-07-09T05:38:25;21.80;99.90
10692;DHT22;5396;50.950;6.988;2023-07-09T05:41:02;21.90;99.90
10692;DHT22;5396;50.950;6.988;2023-07-09T05:43:30;21.90;99.90
10692;DHT22;5396;50.950;6.988;2023-07-09T05:45:56;22.00;99.90
10692;DHT22;5396;50.950;6.988;2023-07-09T05:48:22;22.10;99.90
10692;DHT22;5396;50.950;6.988;2023-07-09T05:50:52;22.10;99.90
10692;DHT22;5396;50.950;6.988;2023-07-09T05:53:18;22.20;99.90
10692;DHT22;5396;50.950;6.988;2023-07-09T05:55:44;22.30;99.90
10692;DHT22;5396;50.950;6.988;2023-07-09T05:58:10;22.30;99.90
10692;DHT22;5396;50.950;6.988;2023-07-09T06:00:35;22.40;99.90
10692;DHT22;5396;50.950;6.988;2023-07-09T06:03:03;22.50;99.90
10692;DHT22;5396;50.950;6.988;2023-07-09T06:05:35;22.60;99.90
10692;DHT22;5396;50.950;6.988;2023-07-09T06:08:01;22.70;99.90
10692;DHT22;5396;50.950;6.988;2023-07-09T06:10:27;22.80;99.90
10692;DHT22;5396;50.950;6.988;2023-07-09T06:12:52;22.90;99.90
10692;DHT22;5396;50.950;6.988;2023-07-09T06:15:18;23.00;99.90
10692;DHT22;5396;50.950;6.988;2023-07-09T06:17:44;23.10;99.90
10692;DHT22;5396;50.950;6.988;2023-07-09T06:20:10;23.20;99.90
10692;DHT22;5396;50.950;6.988;2023-07-09T06:22:36;23.30;99.90
10692;DHT22;5396;50.950;6.988;2023-07-09T06:25:03;23.40;99.90
10692;DHT22;5396;50.950;6.988;2023-07-09T06:27:29;23.50;99.90
10692;DHT22;5396;50.950;6.988;2023-07-09T06:29:54;23.50;99.90
10692;DHT22;5396;50.950;6.988;2023-07-09T06:32:20;23.60;99.90
10692;DHT22;5396;50.950;6.988;2023-07-09T06:34:46;23.70;99.90
10692;DHT22;5396;50.950;6.988;2023-07-09T06:37:11;23.80;99.90
10692;DHT22;5396;50.950;6.988;2023-07-09T06:39:37;23.90;99.90
10692;DHT22;5396;50.950;6.988;2023-07-09T06:42:03;24.00;99.90
10692;DHT22;5396;50.950;6.988;2023-07-09T06:44:28;24.10;99.90
10692;DHT22;5396;50.950;6.988;2023-07-09T06:46:54;24.20;99.90
10692;DHT22;5396;50.950;6.988;2023-07-09T06:49:20;24.30;99.90
10692;DHT22;5396;50.950;6.988;2023-07-09T06:51:45;24.40;99.90
10692;DHT22;5396;50.950;6.988;2023-07-09T06:54:12;24.50;99.90
10692;DHT22;5396;50.950;6.988;2023-07-09T06:56:38;24.60;99.90
10692;DHT22;5396;50.950;6.988;2023-07-09T06:59:03;24.60;99.90
10692;DHT22;5396;50.950;6.988;2023-07-09T07:01:29;24.70;99.90
10692;DHT22;5396;50.950;6.988;2023-07-09T07:03:55;24.80;99.90
10692;DHT22;5396;50.950;6.988;2023-07-09T07:06:21;24.90;99.90
10692;DHT22;5396;50.950;6.988;2023-07-09T07:08:46;25.00;99.90
10692;DHT22;5396;50.950;6.988;2023-07-09T07:11:12;25.10;99.90
10692;DHT22;5396;50.950;6.988;2023-07-09T07:13:39;25.20;99.90
10692;DHT22;5396;50.950;6.988;2023-07-09T07:16:07;25.30;99.90
10692;DHT22;5396;50.950;6.988;2023-07-09T07:18:33;25.30;99.90
10692;DHT22;5396;50.950;6.988;2023-07-09T07:21:00;25.40;99.90
10692;DHT22;5396;50.950;6.988;2023-07-09T07:23:27;25.40;99.90
10692;DHT22;5396;50.950;6.988;2023-07-09T07:25:52;25.50;99.90
10692;DHT22;5396;50.950;6.988;2023-07-09T07:28:18;25.60;99.90
10692;DHT22;5396;50.950;6.988;2023-07-09T07:30:44;25.70;99.90
10692;DHT22;5396;50.950;6.988;2023-07-09T07:33:10;25.80;99.90
10692;DHT22;5396;50.950;6.988;2023-07-09T07:35:37;25.90;99.90
10692;DHT22;5396;50.950;6.988;2023-07-09T07:38:02;25.90;99.90
10692;DHT22;5396;50.950;6.988;2023-07-09T07:40:29;25.90;99.90
10692;DHT22;5396;50.950;6.988;2023-07-09T07:42:54;26.00;99.90
10692;DHT22;5396;50.950;6.988;2023-07-09T07:45:21;26.10;99.90
10692;DHT22;5396;50.950;6.988;2023-07-09T07:47:48;26.20;99.90
10692;DHT22;5396;50.950;6.988;2023-07-09T07:50:15;26.30;99.90
10692;DHT22;5396;50.950;6.988;2023-07-09T07:52:41;26.30;99.90
10692;DHT22;5396;50.950;6.988;2023-07-09T07:55:08;26.30;99.90
10692;DHT22;5396;50.950;6.988;2023-07-09T07:57:34;26.30;99.90
10692;DHT22;5396;50.950;6.988;2023-07-09T08:00:00;26.50;99.90
10692;DHT22;5396;50.950;6.988;2023-07-09T08:02:26;26.50;99.90
10692;DHT22;5396;50.950;6.988;2023-07-09T08:04:51;26.50;99.90
10692;DHT22;5396;50.950;6.988;2023-07-09T08:07:18;26.60;99.90
10692;DHT22;5396;50.950;6.988;2023-07-09T08:09:45;26.70;99.90
10692;DHT22;5396;50.950;6.988;2023-07-09T08:12:12;26.70;99.90
10692;DHT22;5396;50.950;6.988;2023-07-09T08:14:41;26.70;99.90
10692;DHT22;5396;50.950;6.988;2023-07-09T08:17:07;27.00;99.90
10692;DHT22;5396;50.950;6.988;2023-07-09T08:19:47;27.10;99.90
10692;DHT22;5396;50.950;6.988;2023-07-09T08:22:14;27.30;99.90
10692;DHT22;5396;50.950;6.988;2023-07-09T08:24:41;27.50;99.90
10692;DHT22;5396;50.950;6.988;2023-07-09T08:27:07;27.60;99.90
10692;DHT22;5396;50.950;6.988;2023-07-09T08:29:33;27.70;99.90
10692;DHT22;5396;50.950;6.988;2023-07-09T08:31:58;27.80;99.90
10692;DHT22;5396;50.950;6.988;2023-07-09T08:34:24;27.90;99.90
10692;DHT22;5396;50.950;6.988;2023-07-09T08:36:49;28.00;99.90
10692;DHT22;5396;50.950;6.988;2023-07-09T08:39:15;28.10;99.90
10692;DHT22;5396;50.950;6.988;2023-07-09T08:42:11;28.20;99.90
10692;DHT22;5396;50.950;6.988;2023-07-09T08:47:36;28.40;99.90
10692;DHT22;5396;50.950;6.988;2023-07-09T08:50:14;28.40;99.90
10692;DHT22;5396;50.950;6.988;2023-07-09T08:52:43;28.60;99.90
10692;DHT22;5396;50.950;6.988;2023-07-09T08:55:25;28.70;99.90
10692;DHT22;5396;50.950;6.988;2023-07-09T08:58:16;28.80;99.90
10692;DHT22;5396;50.950;6.988;2023-07-09T09:00:55;28.90;99.90
10692;DHT22;5396;50.950;6.988;2023-07-09T09:03:28;29.10;99.90
10692;DHT22;5396;50.950;6.988;2023-07-09T09:05:55;29.10;99.90
10692;DHT22;5396;50.950;6.988;2023-07-09T09:13:40;29.40;99.90
10692;DHT22;5396;50.950;6.988;2023-07-09T09:16:14;29.40;99.90
10692;DHT22;5396;50.950;6.988;2023-07-09T09:18:43;29.40;99.90
10692;DHT22;5396;50.950;6.988;2023-07-09T09:21:26;29.50;99.90
10692;DHT22;5396;50.950;6.988;2023-07-09T09:23:57;29.60;99.90
10692;DHT22;5396;50.950;6.988;2023-07-09T09:26:33;29.70;99.90
10692;DHT22;5396;50.950;6.988;2023-07-09T09:29:00;29.80;99.90
10692;DHT22;5396;50.950;6.988;2023-07-09T09:31:29;29.90;99.90
10692;DHT22;5396;50.950;6.988;2023-07-09T09:33:56;30.20;99.90
10692;DHT22;5396;50.950;6.988;2023-07-09T09:36:24;30.30;99.90
10692;DHT22;5396;50.950;6.988;2023-07-09T09:38:50;30.30;99.90
10692;DHT22;5396;50.950;6.988;2023-07-09T09:41:24;30.40;99.90
10692;DHT22;5396;50.950;6.988;2023-07-09T09:43:53;30.60;99.90
10692;DHT22;5396;50.950;6.988;2023-07-09T09:46:23;30.70;99.90
10692;DHT22;5396;50.950;6.988;2023-07-09T09:48:52;30.80;99.90
10692;DHT22;5396;50.950;6.988;2023-07-09T09:51:19;30.90;99.90
10692;DHT22;5396;50.950;6.988;2023-07-09T09:53:50;31.00;99.90
10692;DHT22;5396;50.950;6.988;2023-07-09T09:56:36;31.10;99.90
10692;DHT22;5396;50.950;6.988;2023-07-09T09:59:03;31.20;99.90
10692;DHT22;5396;50.950;6.988;2023-07-09T10:01:32;31.30;99.90
10692;DHT22;5396;50.950;6.988;2023-07-09T10:04:01;31.40;99.90
10692;DHT22;5396;50.950;6.988;2023-07-09T10:06:38;31.30;99.90
10692;DHT22;5396;50.950;6.988;2023-07-09T10:20:00;31.70;99.90
10692;DHT22;5396;50.950;6.988;2023-07-09T10:22:49;31.90;99.90
10692;DHT22;5396;50.950;6.988;2023-07-09T10:39:37;32.70;99.90
10692;DHT22;5396;50.950;6.988;2023-07-09T10:42:04;32.90;99.90
10692;DHT22;5396;50.950;6.988;2023-07-09T10:44:41;33.00;99.90
10692;DHT22;5396;50.950;6.988;2023-07-09T10:47:32;33.10;99.90
10692;DHT22;5396;50.950;6.988;2023-07-09T10:50:00;33.20;99.90
10692;DHT22;5396;50.950;6.988;2023-07-09T10:52:36;33.30;99.90
10692;DHT22;5396;50.950;6.988;2023-07-09T10:58:10;33.40;99.90
10692;DHT22;5396;50.950;6.988;2023-07-09T11:00:41;33.40;99.90
10692;DHT22;5396;50.950;6.988;2023-07-09T11:03:20;33.60;99.90
10692;DHT22;5396;50.950;6.988;2023-07-09T11:05:48;33.70;99.90
10692;DHT22;5396;50.950;6.988;2023-07-09T11:08:18;33.80;99.90
10692;DHT22;5396;50.950;6.988;2023-07-09T11:11:01;33.80;99.90
10692;DHT22;5396;50.950;6.988;2023-07-09T11:16:00;34.10;99.90
10692;DHT22;5396;50.950;6.988;2023-07-09T11:18:31;34.30;99.90
10692;DHT22;5396;50.950;6.988;2023-07-09T11:21:14;34.50;99.90
10692;DHT22;5396;50.950;6.988;2023-07-09T11:23:54;34.60;99.90
10692;DHT22;5396;50.950;6.988;2023-07-09T11:26:26;34.70;99.90
10692;DHT22;5396;50.950;6.988;2023-07-09T11:34:16;34.80;99.90
10692;DHT22;5396;50.950;6.988;2023-07-09T11:36:51;34.80;99.90
10692;DHT22;5396;50.950;6.988;2023-07-09T11:39:31;35.00;99.90
10692;DHT22;5396;50.950;6.988;2023-07-09T11:42:29;35.10;99.90
10692;DHT22;5396;50.950;6.988;2023-07-09T11:45:09;35.10;99.90
10692;DHT22;5396;50.950;6.988;2023-07-09T11:47:45;35.10;99.90
10692;DHT22;5396;50.950;6.988;2023-07-09T11:50:28;35.20;99.90
10692;DHT22;5396;50.950;6.988;2023-07-09T11:53:42;35.40;99.90
10692;DHT22;5396;50.950;6.988;2023-07-09T11:56:10;35.50;99.90
10692;DHT22;5396;50.950;6.988;2023-07-09T11:58:35;35.70;99.90
10692;DHT22;5396;50.950;6.988;2023-07-09T12:01:02;35.80;99.90
10692;DHT22;5396;50.950;6.988;2023-07-09T12:03:32;35.90;99.90
10692;DHT22;5396;50.950;6.988;2023-07-09T12:06:04;35.90;99.90
10692;DHT22;5396;50.950;6.988;2023-07-09T12:08:38;35.80;99.90
10692;DHT22;5396;50.950;6.988;2023-07-09T12:11:05;35.70;99.90
10692;DHT22;5396;50.950;6.988;2023-07-09T12:13:40;35.60;99.90
10692;DHT22;5396;50.950;6.988;2023-07-09T12:16:41;35.70;99.90
10692;DHT22;5396;50.950;6.988;2023-07-09T12:19:11;35.50;99.90
10692;DHT22;5396;50.950;6.988;2023-07-09T12:21:42;35.50;99.90
10692;DHT22;5396;50.950;6.988;2023-07-09T12:24:22;35.60;99.90
10692;DHT22;5396;50.950;6.988;2023-07-09T12:26:58;35.70;99.90
10692;DHT22;5396;50.950;6.988;2023-07-09T12:29:26;35.90;99.90
10692;DHT22;5396;50.950;6.988;2023-07-09T12:31:52;35.90;99.90
10692;DHT22;5396;50.950;6.988;2023-07-09T12:34:18;36.00;99.90
10692;DHT22;5396;50.950;6.988;2023-07-09T12:36:48;36.00;99.90
10692;DHT22;5396;50.950;6.988;2023-07-09T12:39:18;36.00;99.90
10692;DHT22;5396;50.950;6.988;2023-07-09T12:41:45;35.80;99.90
10692;DHT22;5396;50.950;6.988;2023-07-09T12:44:21;35.50;99.90
10692;DHT22;5396;50.950;6.988;2023-07-09T12:46:49;35.20;99.90
10692;DHT22;5396;50.950;6.988;2023-07-09T12:49:39;35.00;99.90
10692;DHT22;5396;50.950;6.988;2023-07-09T12:52:19;34.80;99.90
10692;DHT22;5396;50.950;6.988;2023-07-09T12:54:55;34.70;99.90
10692;DHT22;5396;50.950;6.988;2023-07-09T12:57:23;34.70;99.90
10692;DHT22;5396;50.950;6.988;2023-07-09T12:59:53;34.70;99.90
10692;DHT22;5396;50.950;6.988;2023-07-09T13:02:22;34.70;99.90
10692;DHT22;5396;50.950;6.988;2023-07-09T13:04:49;34.80;99.90
10692;DHT22;5396;50.950;6.988;2023-07-09T13:09:52;35.10;99.90
10692;DHT22;5396;50.950;6.988;2023-07-09T13:12:19;35.10;99.90
10692;DHT22;5396;50.950;6.988;2023-07-09T13:14:53;35.10;99.90
10692;DHT22;5396;50.950;6.988;2023-07-09T13:17:19;34.80;99.90
10692;DHT22;5396;50.950;6.988;2023-07-09T13:19:45;34.70;99.90
10692;DHT22;5396;50.950;6.988;2023-07-09T13:22:16;34.50;99.90
10692;DHT22;5396;50.950;6.988;2023-07-09T13:24:47;34.50;99.90
10692;DHT22;5396;50.950;6.988;2023-07-09T13:27:15;34.30;99.90
10692;DHT22;5396;50.950;6.988;2023-07-09T13:29:42;34.20;99.90
10692;DHT22;5396;50.950;6.988;2023-07-09T13:32:13;34.10;99.90
10692;DHT22;5396;50.950;6.988;2023-07-09T13:34:43;34.10;99.90
10692;DHT22;5396;50.950;6.988;2023-07-09T13:37:14;34.10;99.90
10692;DHT22;5396;50.950;6.988;2023-07-09T13:39:42;34.00;99.90
10692;DHT22;5396;50.950;6.988;2023-07-09T13:42:12;33.90;99.90
10692;DHT22;5396;50.950;6.988;2023-07-09T13:44:40;33.80;99.90
10692;DHT22;5396;50.950;6.988;2023-07-09T13:47:15;33.60;99.90
10692;DHT22;5396;50.950;6.988;2023-07-09T13:49:42;33.30;99.90
10692;DHT22;5396;50.950;6.988;2023-07-09T13:52:15;33.20;99.90
10692;DHT22;5396;50.950;6.988;2023-07-09T13:54:41;33.00;99.90
10692;DHT22;5396;50.950;6.988;2023-07-09T13:57:15;32.70;99.90
10692;DHT22;5396;50.950;6.988;2023-07-09T13:59:41;32.60;99.90
10692;DHT22;5396;50.950;6.988;2023-07-09T14:02:26;32.60;99.90
10692;DHT22;5396;50.950;6.988;2023-07-09T14:04:57;32.70;99.90
10692;DHT22;5396;50.950;6.988;2023-07-09T14:07:47;32.80;99.90
10692;DHT22;5396;50.950;6.988;2023-07-09T14:10:13;32.80;99.90
10692;DHT22;5396;50.950;6.988;2023-07-09T14:12:45;32.70;99.90
10692;DHT22;5396;50.950;6.988;2023-07-09T14:15:19;32.40;99.90
10692;DHT22;5396;50.950;6.988;2023-07-09T14:17:45;31.80;99.90
10692;DHT22;5396;50.950;6.988;2023-07-09T14:20:16;31.50;99.90
10692;DHT22;5396;50.950;6.988;2023-07-09T14:22:43;31.30;99.90
10692;DHT22;5396;50.950;6.988;2023-07-09T14:25:21;31.20;99.90
10692;DHT22;5396;50.950;6.988;2023-07-09T14:27:52;31.10;99.90
10692;DHT22;5396;50.950;6.988;2023-07-09T14:30:24;30.90;99.90
10692;DHT22;5396;50.950;6.988;2023-07-09T14:32:52;30.90;99.90
10692;DHT22;5396;50.950;6.988;2023-07-09T14:35:22;31.10;99.90
10692;DHT22;5396;50.950;6.988;2023-07-09T14:37:55;30.90;99.90
10692;DHT22;5396;50.950;6.988;2023-07-09T14:40:22;30.30;99.90
10692;DHT22;5396;50.950;6.988;2023-07-09T14:42:49;29.80;99.90
10692;DHT22;5396;50.950;6.988;2023-07-09T14:47:49;28.40;99.90
10692;DHT22;5396;50.950;6.988;2023-07-09T14:50:17;27.80;99.90
10692;DHT22;5396;50.950;6.988;2023-07-09T14:52:44;27.10;99.90
10692;DHT22;5396;50.950;6.988;2023-07-09T14:55:20;26.50;99.90
10692;DHT22;5396;50.950;6.988;2023-07-09T14:57:49;26.10;99.90
10692;DHT22;5396;50.950;6.988;2023-07-09T15:00:17;25.80;99.90
10692;DHT22;5396;50.950;6.988;2023-07-09T15:02:44;25.50;99.90
10692;DHT22;5396;50.950;6.988;2023-07-09T15:05:18;25.50;99.90
10692;DHT22;5396;50.950;6.988;2023-07-09T15:07:49;25.30;99.90
10692;DHT22;5396;50.950;6.988;2023-07-09T15:10:24;25.20;99.90
10692;DHT22;5396;50.950;6.988;2023-07-09T15:12:52;25.20;99.90
10692;DHT22;5396;50.950;6.988;2023-07-09T15:15:28;25.10;99.90
10692;DHT22;5396;50.950;6.988;2023-07-09T15:18:00;25.10;99.90
10692;DHT22;5396;50.950;6.988;2023-07-09T15:20:35;25.10;99.90
10692;DHT22;5396;50.950;6.988;2023-07-09T15:23:03;25.00;99.90
10692;DHT22;5396;50.950;6.988;2023-07-09T15:25:30;25.10;99.90
10692;DHT22;5396;50.950;6.988;2023-07-09T15:27:58;25.10;99.90
10692;DHT22;5396;50.950;6.988;2023-07-09T15:30:26;25.20;99.90
10692;DHT22;5396;50.950;6.988;2023-07-09T15:32:55;25.20;99.90
10692;DHT22;5396;50.950;6.988;2023-07-09T15:35:22;25.20;99.90
10692;DHT22;5396;50.950;6.988;2023-07-09T15:37:48;25.20;99.90
10692;DHT22;5396;50.950;6.988;2023-07-09T15:40:21;25.30;99.90
10692;DHT22;5396;50.950;6.988;2023-07-09T15:42:49;25.30;99.90
10692;DHT22;5396;50.950;6.988;2023-07-09T15:45:17;25.30;99.90
10692;DHT22;5396;50.950;6.988;2023-07-09T15:47:44;25.40;99.90
10692;DHT22;5396;50.950;6.988;2023-07-09T15:50:16;25.30;99.90
10692;DHT22;5396;50.950;6.988;2023-07-09T15:52:43;25.30;99.90
10692;DHT22;5396;50.950;6.988;2023-07-09T15:55:17;25.20;99.90
10692;DHT22;5396;50.950;6.988;2023-07-09T15:57:45;25.20;99.90
10692;DHT22;5396;50.950;6.988;2023-07-09T16:00:25;25.20;99.90
10692;DHT22;5396;50.950;6.988;2023-07-09T16:02:53;25.20;99.90
10692;DHT22;5396;50.950;6.988;2023-07-09T16:05:25;25.20;99.90
10692;DHT22;5396;50.950;6.988;2023-07-09T16:07:56;25.20;99.90
10692;DHT22;5396;50.950;6.988;2023-07-09T16:10:24;25.20;99.90
10692;DHT22;5396;50.950;6.988;2023-07-09T16:12:51;25.20;99.90
10692;DHT22;5396;50.950;6.988;2023-07-09T16:15:20;25.00;99.90
10692;DHT22;5396;50.950;6.988;2023-07-09T16:17:52;25.00;99.90
10692;DHT22;5396;50.950;6.988;2023-07-09T16:20:24;24.90;99.90
10692;DHT22;5396;50.950;6.988;2023-07-09T16:22:52;24.90;99.90
10692;DHT22;5396;50.950;6.988;2023-07-09T16:27:54;24.90;99.90
10692;DHT22;5396;50.950;6.988;2023-07-09T16:30:24;24.90;99.90
10692;DHT22;5396;50.950;6.988;2023-07-09T16:32:50;24.90;99.90
10692;DHT22;5396;50.950;6.988;2023-07-09T16:35:19;24.80;99.90
10692;DHT22;5396;50.950;6.988;2023-07-09T16:37:46;24.80;99.90
10692;DHT22;5396;50.950;6.988;2023-07-09T16:40:23;24.70;99.90
10692;DHT22;5396;50.950;6.988;2023-07-09T16:42:50;24.70;99.90
10692;DHT22;5396;50.950;6.988;2023-07-09T16:45:17;24.70;99.90
10692;DHT22;5396;50.950;6.988;2023-07-09T16:47:44;24.70;99.90
10692;DHT22;5396;50.950;6.988;2023-07-09T16:50:13;24.70;99.90
10692;DHT22;5396;50.950;6.988;2023-07-09T16:52:41;24.70;99.90
10692;DHT22;5396;50.950;6.988;2023-07-09T16:55:08;24.70;99.90
10692;DHT22;5396;50.950;6.988;2023-07-09T16:57:38;24.80;99.90